Time;durP1;ratioP1;P1;durP2;ratioP2;P2;SDS_P1;SDS_P2;PMS_P1;PMS_P2;Temp;Humidity;BMP_temperature;BMP_pressure;BME280_temperature;BME280_humidity;BME280_pressure;Samples;Min_cycle;Max_cycle;Signal;HPM_P1;HPM_P2
2023/10/28 00:02:00;;;;;;;;;;;;;;;;;;5033106;28;20003;-65
2023/10/28 00:04:26;;;;;;;;;;;;;;;;;;5045940;28;20365;-65
2023/10/28 00:06:52;;;;;;;;;;;;;;;;;;5044544;28;19999;-65
2023/10/28 00:09:20;;;;;;;;;;;;;;;;;;5032190;28;19909;-65
2023/10/28 00:11:46;;;;;;;;;;;;;;;;;;5043553;28;19935;-65
2023/10/28 00:14:14;;;;;;;;;;;;;;;;;;5048345;28;20300;-65
2023/10/28 00:16:40;;;;;;;;;;;;;;;;;;5047350;28;20381;-65
2023/10/28 00:19:07;;;;;;;;;;;;;;;;;;5043215;28;20015;-65
2023/10/28 00:21:34;;;;;;;;;;;;;;;;;;5037039;28;19923;-65
2023/10/28 00:24:01;;;;;;;;;;;;;;;;;;5046905;28;20313;-65
2023/10/28 00:26:27;;;;;;;;;;;;;;;;;;5048523;28;20277;-65
2023/10/28 00:28:53;;;;;;;;;;;;;;;;;;5054765;28;19924;-65
2023/10/28 00:31:19;;;;;;;;;;;;;;;;;;5056053;28;19912;-65
2023/10/28 00:33:45;;;;;;;;;;;;;;;;;;5056256;28;20304;-61
2023/10/28 00:36:11;;;;;;;;;;;;;;;;;;5047334;28;19956;-62
2023/10/28 00:38:37;;;;;;;;;;;;;;;;;;5047301;28;19967;-61
2023/10/28 00:41:03;;;;;;;;;;;;;;;;;;5051598;28;19956;-62
2023/10/28 00:43:32;;;;;;;;;;;;;;;;;;5044772;28;20280;-61
2023/10/28 00:45:59;;;;;;;;;;;;;;;;;;5047608;28;19917;-65
2023/10/28 00:48:25;;;;;;;;;;;;;;;;;;5041653;28;19920;-61
2023/10/28 00:50:51;;;;;;;;;;;;;;;;;;5035804;28;19941;-61
2023/10/28 00:53:17;;;;;;;;;;;;;;;;;;5046322;28;20004;-61
2023/10/28 00:55:43;;;;;;;;;;;;;;;;;;5047260;28;20008;-62
2023/10/28 00:58:09;;;;;;;;;;;;;;;;;;5038826;28;19984;-62
2023/10/28 01:00:35;;;;;;;;;;;;;;;;;;5052609;28;19948;-61
2023/10/28 01:03:03;;;;;;;;;;;;;;;;;;5049462;28;20602;-61
2023/10/28 01:05:30;;;;;;;;;;;;;;;;;;5052933;28;19917;-60
2023/10/28 01:07:58;;;;;;;;;;;;;;;;;;5049267;28;19948;-60
2023/10/28 01:10:24;;;;;;;;;;;;;;;;;;5053481;28;19916;-60
2023/10/28 01:12:50;;;;;;;;;;;;;;;;;;5049065;28;19975;-60
2023/10/28 01:15:16;;;;;;;;;;;;;;;;;;5049570;28;20349;-60
2023/10/28 01:17:42;;;;;;;;;;;;;;;;;;5055553;28;20016;-60
2023/10/28 01:20:10;;;;;;;;;;;;;;;;;;5054394;28;19920;-60
2023/10/28 01:22:36;;;;;;;;;;;;;;;;;;5054160;28;19920;-59
2023/10/28 01:25:02;;;;;;;;;;;;;;;;;;5055073;28;19920;-60
2023/10/28 01:27:28;;;;;;;;;;;;;;;;;;5041183;28;20694;-59
2023/10/28 01:29:55;;;;;;;;;;;;;;;;;;5040594;28;19975;-61
2023/10/28 01:32:21;;;;;;;;;;;;;;;;;;5042687;28;19924;-67
2023/10/28 01:34:48;;;;;;;;;;;;;;;;;;5044220;28;19924;-66
2023/10/28 01:37:16;;;;;;;;;;;;;;;;;;5043413;28;20487;-67
2023/10/28 01:39:42;;;;;;;;;;;;;;;;;;5052267;28;20372;-67
2023/10/28 01:42:08;;;;;;;;;;;;;;;;;;5049782;28;20013;-60
2023/10/28 01:44:36;;;;;;;;;;;;;;;;;;5045656;28;20000;-60
2023/10/28 01:47:03;;;;;;;;;;;;;;;;;;5053976;28;19924;-60
2023/10/28 01:49:31;;;;;;;;;;;;;;;;;;5050607;28;19917;-59
2023/10/28 01:51:56;;;;;;;;;;;;;;;;;;5049741;28;19913;-60
2023/10/28 01:54:22;;;;;;;;;;;;;;;;;;5054660;28;19971;-61
2023/10/28 01:56:48;;;;;;;;;;;;;;;;;;5052529;28;19913;-60
2023/10/28 01:59:14;;;;;;;;;;;;;;;;;;5037201;28;20368;-63
2023/10/28 02:01:40;;;;;;;;;;;;;;;;;;5036793;28;20004;-61
2023/10/28 02:04:06;;;;;;;;;;;;;;;;;;5041436;28;20008;-60
2023/10/28 02:06:32;;;;;;;;;;;;;;;;;;5048585;28;19913;-60
2023/10/28 02:08:58;;;;;;;;;;;;;;;;;;5050139;28;19913;-60
2023/10/28 02:11:24;;;;;;;;;;;;;;;;;;5051500;28;20365;-61
2023/10/28 02:13:50;;;;;;;;;;;;;;;;;;5041091;28;19961;-61
2023/10/28 02:16:15;;;;;;;;;;;;;;;;;;5053655;28;20054;-61
2023/10/28 02:18:41;;;;;;;;;;;;;;;;;;5045018;28;20399;-62
2023/10/28 02:21:07;;;;;;;;;;;;;;;;;;5051283;28;19913;-60
2023/10/28 02:23:33;;;;;;;;;;;;;;;;;;5049353;28;20695;-61
2023/10/28 02:26:00;;;;;;;;;;;;;;;;;;5052263;28;19925;-60
2023/10/28 02:28:27;;;;;;;;;;;;;;;;;;5052942;28;19969;-60
2023/10/28 02:30:52;;;;;;;;;;;;;;;;;;5049300;28;19936;-60
2023/10/28 02:33:18;;;;;;;;;;;;;;;;;;5039980;28;19961;-60
2023/10/28 02:35:44;;;;;;;;;;;;;;;;;;5051943;28;20394;-60
2023/10/28 02:38:10;;;;;;;;;;;;;;;;;;5050770;28;19913;-61
2023/10/28 02:40:36;;;;;;;;;;;;;;;;;;5036799;28;20001;-61
2023/10/28 02:43:02;;;;;;;;;;;;;;;;;;5038612;28;19964;-67
2023/10/28 02:45:28;;;;;;;;;;;;;;;;;;5053463;28;20015;-66
2023/10/28 02:47:54;;;;;;;;;;;;;;;;;;5045953;28;19921;-66
2023/10/28 02:50:20;;;;;;;;;;;;;;;;;;5044749;28;20372;-67
2023/10/28 02:52:46;;;;;;;;;;;;;;;;;;5043747;28;19978;-62
2023/10/28 02:55:13;;;;;;;;;;;;;;;;;;5051448;28;19999;-60
2023/10/28 02:57:39;;;;;;;;;;;;;;;;;;5047295;28;20011;-60
2023/10/28 03:00:08;;;;;;;;;;;;;;;;;;5033496;28;19996;-63
2023/10/28 03:02:34;;;;;;;;;;;;;;;;;;5042077;28;20004;-61
2023/10/28 03:05:00;;;;;;;;;;;;;;;;;;5033887;28;19933;-60
2023/10/28 03:07:26;;;;;;;;;;;;;;;;;;5043897;28;20320;-60
2023/10/28 03:09:52;;;;;;;;;;;;;;;;;;5053143;28;20003;-60
2023/10/28 03:12:18;;;;;;;;;;;;;;;;;;5043184;28;19974;-60
2023/10/28 03:14:44;;;;;;;;;;;;;;;;;;5053170;28;19917;-61
2023/10/28 03:17:10;;;;;;;;;;;;;;;;;;5053281;28;19963;-60
2023/10/28 03:19:36;;;;;;;;;;;;;;;;;;5050907;28;19913;-60
2023/10/28 03:22:02;;;;;;;;;;;;;;;;;;5046936;28;19956;-60
2023/10/28 03:24:28;;;;;;;;;;;;;;;;;;5032784;28;19939;-59
2023/10/28 03:26:55;;;;;;;;;;;;;;;;;;5037368;28;20015;-60
2023/10/28 03:29:21;;;;;;;;;;;;;;;;;;5041739;28;19959;-60
2023/10/28 03:31:47;;;;;;;;;;;;;;;;;;5047537;28;19961;-60
2023/10/28 03:34:13;;;;;;;;;;;;;;;;;;5033213;28;19921;-59
2023/10/28 03:36:39;;;;;;;;;;;;;;;;;;5051676;28;20327;-59
2023/10/28 03:39:05;;;;;;;;;;;;;;;;;;5046325;28;19919;-60
2023/10/28 03:41:32;;;;;;;;;;;;;;;;;;5047235;28;19967;-60
2023/10/28 03:43:58;;;;;;;;;;;;;;;;;;5047137;28;19938;-59
2023/10/28 03:46:25;;;;;;;;;;;;;;;;;;5051523;28;19995;-60
2023/10/28 03:48:51;;;;;;;;;;;;;;;;;;5042175;28;19913;-59
2023/10/28 03:51:16;;;;;;;;;;;;;;;;;;5050889;28;19963;-59
2023/10/28 03:53:42;;;;;;;;;;;;;;;;;;5046222;28;19917;-66
2023/10/28 03:56:09;;;;;;;;;;;;;;;;;;5051103;28;20000;-66
2023/10/28 03:58:35;;;;;;;;;;;;;;;;;;5050602;28;19923;-66
2023/10/28 04:01:01;;;;;;;;;;;;;;;;;;5045040;28;19914;-66
2023/10/28 04:03:27;;;;;;;;;;;;;;;;;;5037563;28;19919;-65
2023/10/28 04:05:54;;;;;;;;;;;;;;;;;;5051602;28;19912;-65
2023/10/28 04:08:19;;;;;;;;;;;;;;;;;;5051495;28;19924;-65
2023/10/28 04:10:46;;;;;;;;;;;;;;;;;;5045390;28;19967;-65
2023/10/28 04:13:12;;;;;;;;;;;;;;;;;;5040671;28;19924;-65
2023/10/28 04:15:39;;;;;;;;;;;;;;;;;;5045156;28;20350;-65
2023/10/28 04:18:05;;;;;;;;;;;;;;;;;;5045332;28;20043;-65
2023/10/28 04:20:31;;;;;;;;;;;;;;;;;;5049684;28;20008;-66
2023/10/28 04:22:57;;;;;;;;;;;;;;;;;;5050343;28;19920;-66
2023/10/28 04:25:23;;;;;;;;;;;;;;;;;;5053119;28;20300;-65
2023/10/28 04:27:50;;;;;;;;;;;;;;;;;;5051894;28;19947;-65
2023/10/28 04:30:16;;;;;;;;;;;;;;;;;;5046047;28;19917;-66
2023/10/28 04:32:43;;;;;;;;;;;;;;;;;;5042451;28;20352;-65
2023/10/28 04:35:10;;;;;;;;;;;;;;;;;;5031839;28;19917;-66
2023/10/28 04:37:36;;;;;;;;;;;;;;;;;;5048860;28;19923;-65
2023/10/28 04:40:04;;;;;;;;;;;;;;;;;;5051686;28;19909;-65
2023/10/28 04:42:31;;;;;;;;;;;;;;;;;;5050895;28;19919;-65
2023/10/28 04:44:57;;;;;;;;;;;;;;;;;;5047079;28;19913;-65
2023/10/28 04:47:24;;;;;;;;;;;;;;;;;;5050958;28;20430;-65
2023/10/28 04:49:50;;;;;;;;;;;;;;;;;;5051426;28;19913;-65
2023/10/28 04:52:16;;;;;;;;;;;;;;;;;;5045349;28;19921;-65
2023/10/28 04:54:42;;;;;;;;;;;;;;;;;;5048904;28;19913;-65
2023/10/28 04:57:09;;;;;;;;;;;;;;;;;;5051607;28;20380;-64
2023/10/28 04:59:35;;;;;;;;;;;;;;;;;;5051534;28;19909;-65
2023/10/28 05:02:01;;;;;;;;;;;;;;;;;;5046586;28;20002;-65
2023/10/28 05:04:27;;;;;;;;;;;;;;;;;;5048931;28;20353;-65
2023/10/28 05:06:53;;;;;;;;;;;;;;;;;;5050107;28;19912;-65
2023/10/28 05:09:20;;;;;;;;;;;;;;;;;;5051293;28;20296;-65
2023/10/28 05:11:46;;;;;;;;;;;;;;;;;;5048757;28;19920;-66
2023/10/28 05:14:12;;;;;;;;;;;;;;;;;;5047770;28;19913;-67
2023/10/28 05:16:38;;;;;;;;;;;;;;;;;;5049768;28;20404;-67
2023/10/28 05:19:04;;;;;;;;;;;;;;;;;;5055179;28;19917;-67
2023/10/28 05:21:30;;;;;;;;;;;;;;;;;;5048046;28;19956;-67
2023/10/28 05:23:56;;;;;;;;;;;;;;;;;;5054924;28;20352;-66
2023/10/28 05:26:22;;;;;;;;;;;;;;;;;;5049732;28;20289;-67
2023/10/28 05:28:50;;;;;;;;;;;;;;;;;;5050436;28;19956;-67
2023/10/28 05:31:16;;;;;;;;;;;;;;;;;;5054845;28;19919;-67
2023/10/28 05:33:42;;;;;;;;;;;;;;;;;;5052877;28;19929;-66
2023/10/28 05:36:08;;;;;;;;;;;;;;;;;;5054146;28;19958;-67
2023/10/28 05:38:34;;;;;;;;;;;;;;;;;;5040215;28;19956;-67
2023/10/28 05:41:00;;;;;;;;;;;;;;;;;;5045784;28;19952;-68
2023/10/28 05:43:26;;;;;;;;;;;;;;;;;;5054797;28;19987;-67
2023/10/28 05:45:52;;;;;;;;;;;;;;;;;;5046682;28;19920;-67
2023/10/28 05:48:18;;;;;;;;;;;;;;;;;;5051475;28;19939;-67
2023/10/28 05:50:44;;;;;;;;;;;;;;;;;;5051685;28;20377;-67
2023/10/28 05:53:10;;;;;;;;;;;;;;;;;;5043414;28;19923;-67
2023/10/28 05:55:35;;;;;;;;;;;;;;;;;;5051492;28;19916;-67
2023/10/28 05:58:01;;;;;;;;;;;;;;;;;;5050190;28;19920;-67
2023/10/28 06:00:28;;;;;;;;;;;;;;;;;;5051820;28;19980;-68
2023/10/28 06:02:54;;;;;;;;;;;;;;;;;;5053485;28;19938;-67
2023/10/28 06:05:20;;;;;;;;;;;;;;;;;;5030107;28;19916;-68
2023/10/28 06:07:49;;;;;;;;;;;;;;;;;;5048746;28;20436;-67
2023/10/28 06:10:15;;;;;;;;;;;;;;;;;;5048146;28;19915;-68
2023/10/28 06:12:41;;;;;;;;;;;;;;;;;;5045904;28;19916;-65
2023/10/28 06:15:07;;;;;;;;;;;;;;;;;;5056662;28;19919;-65
2023/10/28 06:17:35;;;;;;;;;;;;;;;;;;5045513;28;19929;-65
2023/10/28 06:20:01;;;;;;;;;;;;;;;;;;5052741;28;19917;-65
2023/10/28 06:22:26;;;;;;;;;;;;;;;;;;5050016;28;19965;-66
2023/10/28 06:24:54;;;;;;;;;;;;;;;;;;5042649;28;20008;-66
2023/10/28 06:27:22;;;;;;;;;;;;;;;;;;5044523;28;19971;-66
2023/10/28 06:29:48;;;;;;;;;;;;;;;;;;5052518;28;19916;-66
2023/10/28 06:32:13;;;;;;;;;;;;;;;;;;5052131;28;19912;-66
2023/10/28 06:34:40;;;;;;;;;;;;;;;;;;5046642;28;19969;-66
2023/10/28 06:37:06;;;;;;;;;;;;;;;;;;5043328;28;19963;-66
2023/10/28 06:39:32;;;;;;;;;;;;;;;;;;5055259;28;19952;-66
2023/10/28 06:42:01;;;;;;;;;;;;;;;;;;5051597;28;19917;-66
2023/10/28 06:44:26;;;;;;;;;;;;;;;;;;5049606;28;19969;-66
2023/10/28 06:46:52;;;;;;;;;;;;;;;;;;5048080;28;20385;-66
2023/10/28 06:49:18;;;;;;;;;;;;;;;;;;5044007;28;19920;-66
2023/10/28 06:51:45;;;;;;;;;;;;;;;;;;5046434;28;20007;-66
2023/10/28 06:54:11;;;;;;;;;;;;;;;;;;5051162;28;19974;-66
2023/10/28 06:56:37;;;;;;;;;;;;;;;;;;5046348;28;20413;-66
2023/10/28 06:59:03;;;;;;;;;;;;;;;;;;5046856;28;19963;-65
2023/10/28 07:01:28;;;;;;;;;;;;;;;;;;5038805;28;19913;-66
2023/10/28 07:03:54;;;;;;;;;;;;;;;;;;5050025;28;19921;-66
2023/10/28 07:06:20;;;;;;;;;;;;;;;;;;5035682;28;20052;-66
2023/10/28 07:08:46;;;;;;;;;;;;;;;;;;5048360;28;19909;-66
2023/10/28 07:11:13;;;;;;;;;;;;;;;;;;5052411;28;19999;-66
2023/10/28 07:13:39;;;;;;;;;;;;;;;;;;5043658;28;19921;-66
2023/10/28 07:16:04;;;;;;;;;;;;;;;;;;5045719;28;19920;-66
2023/10/28 07:18:30;;;;;;;;;;;;;;;;;;5042686;28;20389;-66
2023/10/28 07:20:56;;;;;;;;;;;;;;;;;;5044589;28;19916;-66
2023/10/28 07:23:26;;;;;;;;;;;;;;;;;;5050085;28;20030;-61
2023/10/28 07:25:52;;;;;;;;;;;;;;;;;;5038248;28;19917;-61
2023/10/28 07:28:18;;;;;;;;;;;;;;;;;;5043336;28;20361;-61
2023/10/28 07:30:44;;;;;;;;;;;;;;;;;;5027468;28;19980;-62
2023/10/28 07:33:13;;;;;;;;;;;;;;;;;;5047178;28;21594;-65
2023/10/28 07:35:41;;;;;;;;;;;;;;;;;;5035087;28;19912;-65
2023/10/28 07:38:07;;;;;;;;;;;;;;;;;;5050307;28;19954;-65
2023/10/28 07:40:33;;;;;;;;;;;;;;;;;;5046745;28;20325;-65
2023/10/28 07:42:59;;;;;;;;;;;;;;;;;;5047442;28;19921;-65
2023/10/28 07:45:25;;;;;;;;;;;;;;;;;;5034774;28;19928;-65
2023/10/28 07:47:51;;;;;;;;;;;;;;;;;;5039704;28;19956;-65
2023/10/28 07:50:17;;;;;;;;;;;;;;;;;;5039738;28;19959;-65
2023/10/28 07:52:43;;;;;;;;;;;;;;;;;;5047584;28;19916;-65
2023/10/28 07:55:09;;;;;;;;;;;;;;;;;;5038864;28;20396;-65
2023/10/28 07:57:35;;;;;;;;;;;;;;;;;;5049741;28;19921;-65
2023/10/28 08:00:04;;;;;;;;;;;;;;;;;;5043671;28;19912;-65
2023/10/28 08:02:31;;;;;;;;;;;;;;;;;;5051609;28;19909;-65
2023/10/28 08:04:57;;;;;;;;;;;;;;;;;;5041863;28;19913;-65
2023/10/28 08:07:24;;;;;;;;;;;;;;;;;;5039440;28;19982;-66
2023/10/28 08:09:50;;;;;;;;;;;;;;;;;;5041008;28;20311;-66
2023/10/28 08:12:16;;;;;;;;;;;;;;;;;;5038039;28;20007;-66
2023/10/28 08:14:47;;;;;;;;;;;;;;;;;;5045071;28;19917;-66
2023/10/28 08:17:12;;;;;;;;;;;;;;;;;;5043349;28;19996;-64
2023/10/28 08:19:40;;;;;;;;;;;;;;;;;;5049438;28;19955;-66
2023/10/28 08:22:06;;;;;;;;;;;;;;;;;;5048400;28;20293;-66
2023/10/28 08:24:32;;;;;;;;;;;;;;;;;;5050765;28;19923;-65
2023/10/28 08:26:58;;;;;;;;;;;;;;;;;;5049802;28;20415;-66
2023/10/28 08:29:24;;;;;;;;;;;;;;;;;;5043106;28;20684;-65
2023/10/28 08:31:50;;;;;;;;;;;;;;;;;;5047640;28;20333;-65
2023/10/28 08:34:16;;;;;;;;;;;;;;;;;;5051041;28;19982;-65
2023/10/28 08:36:42;;;;;;;;;;;;;;;;;;5049942;28;19992;-66
2023/10/28 08:39:08;;;;;;;;;;;;;;;;;;5047990;28;19955;-66
2023/10/28 08:41:34;;;;;;;;;;;;;;;;;;5048415;28;20022;-66
2023/10/28 08:44:00;;;;;;;;;;;;;;;;;;5041528;28;20020;-68
2023/10/28 08:46:26;;;;;;;;;;;;;;;;;;5049650;28;20555;-68
2023/10/28 08:48:52;;;;;;;;;;;;;;;;;;5049695;28;19913;-68
2023/10/28 08:51:18;;;;;;;;;;;;;;;;;;5051249;28;19995;-69
2023/10/28 08:53:44;;;;;;;;;;;;;;;;;;5049047;28;19921;-68
2023/10/28 08:56:12;;;;;;;;;;;;;;;;;;5049395;28;19958;-68
2023/10/28 08:58:38;;;;;;;;;;;;;;;;;;5047839;28;20359;-68
2023/10/28 09:01:04;;;;;;;;;;;;;;;;;;5048010;28;19956;-68
2023/10/28 09:03:30;;;;;;;;;;;;;;;;;;5051266;28;19951;-67
2023/10/28 09:05:59;;;;;;;;;;;;;;;;;;5051570;28;20016;-68
2023/10/28 09:08:25;;;;;;;;;;;;;;;;;;5053932;28;19959;-66
2023/10/28 09:10:50;;;;;;;;;;;;;;;;;;5056021;28;19913;-68
2023/10/28 09:13:16;;;;;;;;;;;;;;;;;;5054783;28;20292;-68
2023/10/28 09:15:42;;;;;;;;;;;;;;;;;;5053099;28;19995;-68
2023/10/28 09:18:08;;;;;;;;;;;;;;;;;;5052476;28;19909;-66
2023/10/28 09:20:37;;;;;;;;;;;;;;;;;;5051358;28;19917;-66
2023/10/28 09:23:03;;;;;;;;;;;;;;;;;;5048843;28;19908;-67
2023/10/28 09:25:29;;;;;;;;;;;;;;;;;;5051336;28;19956;-68
2023/10/28 09:27:55;;;;;;;;;;;;;;;;;;5051702;28;19945;-68
2023/10/28 09:30:21;;;;;;;;;;;;;;;;;;5057480;28;20250;-68
2023/10/28 09:32:47;;;;;;;;;;;;;;;;;;5057695;28;20036;-67
2023/10/28 09:35:13;;;;;;;;;;;;;;;;;;5051825;28;20050;-68
2023/10/28 09:37:39;;;;;;;;;;;;;;;;;;5054293;28;19913;-67
2023/10/28 09:40:05;;;;;;;;;;;;;;;;;;5045636;28;20007;-67
2023/10/28 09:42:31;;;;;;;;;;;;;;;;;;5051590;28;20011;-68
2023/10/28 09:44:58;;;;;;;;;;;;;;;;;;5050115;28;19951;-68
2023/10/28 09:47:24;;;;;;;;;;;;;;;;;;5048612;28;19920;-66
2023/10/28 09:49:50;;;;;;;;;;;;;;;;;;5043042;28;20430;-68
2023/10/28 09:52:16;;;;;;;;;;;;;;;;;;5054563;28;19921;-65
2023/10/28 09:54:42;;;;;;;;;;;;;;;;;;5053331;28;19920;-64
2023/10/28 09:57:10;;;;;;;;;;;;;;;;;;5052028;28;19978;-65
2023/10/28 09:59:36;;;;;;;;;;;;;;;;;;5049431;28;19914;-63
2023/10/28 10:02:02;;;;;;;;;;;;;;;;;;5049477;28;19999;-65
2023/10/28 10:04:28;;;;;;;;;;;;;;;;;;5053341;28;19913;-64
2023/10/28 10:06:54;;;;;;;;;;;;;;;;;;5050680;28;20083;-65
2023/10/28 10:09:20;;;;;;;;;;;;;;;;;;5042408;28;20000;-65
2023/10/28 10:11:46;;;;;;;;;;;;;;;;;;5049969;28;19932;-65
2023/10/28 10:14:12;;;;;;;;;;;;;;;;;;5050833;28;19972;-65
2023/10/28 10:16:38;;;;;;;;;;;;;;;;;;5053237;28;19920;-65
2023/10/28 10:19:04;;;;;;;;;;;;;;;;;;5050125;28;20321;-65
2023/10/28 10:21:30;;;;;;;;;;;;;;;;;;5046975;28;20012;-65
2023/10/28 10:23:56;;;;;;;;;;;;;;;;;;5040694;28;20000;-65
2023/10/28 10:26:22;;;;;;;;;;;;;;;;;;5047121;28;19955;-64
2023/10/28 10:28:48;;;;;;;;;;;;;;;;;;5051497;28;19936;-65
2023/10/28 10:31:14;;;;;;;;;;;;;;;;;;5052622;28;19933;-64
2023/10/28 10:33:40;;;;;;;;;;;;;;;;;;5050578;28;20011;-64
2023/10/28 10:36:06;;;;;;;;;;;;;;;;;;5045400;28;20266;-64
2023/10/28 10:38:32;;;;;;;;;;;;;;;;;;5051743;28;19912;-63
2023/10/28 10:40:58;;;;;;;;;;;;;;;;;;5046422;28;19920;-64
2023/10/28 10:43:24;;;;;;;;;;;;;;;;;;5043168;28;19913;-64
2023/10/28 10:45:50;;;;;;;;;;;;;;;;;;5047099;28;19995;-64
2023/10/28 10:48:17;;;;;;;;;;;;;;;;;;5053047;28;20348;-63
2023/10/28 10:50:42;;;;;;;;;;;;;;;;;;5046911;28;19913;-63
2023/10/28 10:53:09;;;;;;;;;;;;;;;;;;5051830;28;19955;-66
2023/10/28 10:55:35;;;;;;;;;;;;;;;;;;5040891;28;20068;-66
2023/10/28 10:58:01;;;;;;;;;;;;;;;;;;5044952;28;20343;-66
2023/10/28 11:00:27;;;;;;;;;;;;;;;;;;5049420;28;19959;-66
2023/10/28 11:02:56;;;;;;;;;;;;;;;;;;5046182;28;20412;-66
2023/10/28 11:05:22;;;;;;;;;;;;;;;;;;5052139;28;19917;-66
2023/10/28 11:07:48;;;;;;;;;;;;;;;;;;5041901;28;20492;-66
2023/10/28 11:10:14;;;;;;;;;;;;;;;;;;5039181;28;19921;-66
2023/10/28 11:12:41;;;;;;;;;;;;;;;;;;5043776;28;19913;-66
2023/10/28 11:15:08;;;;;;;;;;;;;;;;;;5035477;28;19909;-67
2023/10/28 11:17:34;;;;;;;;;;;;;;;;;;5039633;28;19991;-66
2023/10/28 11:20:02;;;;;;;;;;;;;;;;;;5039751;28;19940;-66
2023/10/28 11:22:28;;;;;;;;;;;;;;;;;;5050168;28;19913;-66
2023/10/28 11:24:55;;;;;;;;;;;;;;;;;;5049346;28;19955;-66
2023/10/28 11:27:22;;;;;;;;;;;;;;;;;;5049135;28;20424;-66
2023/10/28 11:29:48;;;;;;;;;;;;;;;;;;5047288;28;19920;-66
2023/10/28 11:32:14;;;;;;;;;;;;;;;;;;5046392;28;19952;-66
2023/10/28 11:34:40;;;;;;;;;;;;;;;;;;5040161;28;19950;-66
2023/10/28 11:37:06;;;;;;;;;;;;;;;;;;5051689;28;19970;-67
2023/10/28 11:39:33;;;;;;;;;;;;;;;;;;5050928;28;19920;-66
2023/10/28 11:42:01;;;;;;;;;;;;;;;;;;5051015;28;20361;-67
2023/10/28 11:44:27;;;;;;;;;;;;;;;;;;5048560;28;19920;-66
2023/10/28 11:46:53;;;;;;;;;;;;;;;;;;5041731;28;19991;-66
2023/10/28 11:49:19;;;;;;;;;;;;;;;;;;5035113;28;20064;-66
2023/10/28 11:51:45;;;;;;;;;;;;;;;;;;5035133;28;19959;-66
2023/10/28 11:54:11;;;;;;;;;;;;;;;;;;5050165;28;19948;-66
2023/10/28 11:56:37;;;;;;;;;;;;;;;;;;5047896;28;20007;-66
2023/10/28 11:59:03;;;;;;;;;;;;;;;;;;5044300;28;19919;-66
2023/10/28 12:01:31;;;;;;;;;;;;;;;;;;5048057;28;19944;-66
2023/10/28 12:03:57;;;;;;;;;;;;;;;;;;5044093;28;20257;-61
2023/10/28 12:06:23;;;;;;;;;;;;;;;;;;5049285;28;19994;-61
2023/10/28 12:08:49;;;;;;;;;;;;;;;;;;5042711;28;19913;-64
2023/10/28 12:11:15;;;;;;;;;;;;;;;;;;5049035;28;20364;-62
2023/10/28 12:13:42;;;;;;;;;;;;;;;;;;5051171;28;19917;-66
2023/10/28 12:16:09;;;;;;;;;;;;;;;;;;5054808;28;20363;-66
2023/10/28 12:18:36;;;;;;;;;;;;;;;;;;5045820;28;19944;-66
2023/10/28 12:21:02;;;;;;;;;;;;;;;;;;5049512;28;19966;-66
2023/10/28 12:23:28;;;;;;;;;;;;;;;;;;5029727;28;19982;-66
2023/10/28 12:25:54;;;;;;;;;;;;;;;;;;5046314;28;19955;-66
2023/10/28 12:28:22;;;;;;;;;;;;;;;;;;5043383;28;20272;-66
2023/10/28 12:30:48;;;;;;;;;;;;;;;;;;5038119;28;19913;-66
2023/10/28 12:33:16;;;;;;;;;;;;;;;;;;5043722;28;19925;-66
2023/10/28 12:35:42;;;;;;;;;;;;;;;;;;5038420;28;19958;-66
2023/10/28 12:38:08;;;;;;;;;;;;;;;;;;5049704;28;20344;-66
2023/10/28 12:40:34;;;;;;;;;;;;;;;;;;5048511;28;19963;-67
2023/10/28 12:43:00;;;;;;;;;;;;;;;;;;5046442;28;19913;-67
2023/10/28 12:45:26;;;;;;;;;;;;;;;;;;5048816;28;20003;-66
2023/10/28 12:47:52;;;;;;;;;;;;;;;;;;5050866;28;19998;-67
2023/10/28 12:50:19;;;;;;;;;;;;;;;;;;5045027;28;19917;-67
2023/10/28 12:52:44;;;;;;;;;;;;;;;;;;5048219;28;19917;-67
2023/10/28 12:55:11;;;;;;;;;;;;;;;;;;5051215;28;19909;-67
2023/10/28 12:57:37;;;;;;;;;;;;;;;;;;5051269;28;20353;-67
2023/10/28 13:00:08;;;;;;;;;;;;;;;;;;5050738;28;19909;-67
2023/10/28 13:02:36;;;;;;;;;;;;;;;;;;5051505;28;19913;-67
2023/10/28 13:05:02;;;;;;;;;;;;;;;;;;5040975;28;19909;-66
2023/10/28 13:07:29;;;;;;;;;;;;;;;;;;5048989;28;19959;-67
2023/10/28 13:09:55;;;;;;;;;;;;;;;;;;5049292;28;19913;-67
2023/10/28 13:12:21;;;;;;;;;;;;;;;;;;5041135;28;19949;-67
2023/10/28 13:14:50;;;;;;;;;;;;;;;;;;5051881;28;20351;-67
2023/10/28 13:17:15;;;;;;;;;;;;;;;;;;5050973;28;19913;-67
2023/10/28 13:19:41;;;;;;;;;;;;;;;;;;5050580;28;19962;-67
2023/10/28 13:22:07;;;;;;;;;;;;;;;;;;5051027;28;20383;-61
2023/10/28 13:24:33;;;;;;;;;;;;;;;;;;5048202;28;19917;-61
2023/10/28 13:26:59;;;;;;;;;;;;;;;;;;5046448;28;20349;-61
2023/10/28 13:29:25;;;;;;;;;;;;;;;;;;5049809;28;20304;-61
2023/10/28 13:31:51;;;;;;;;;;;;;;;;;;5046659;28;19917;-64
2023/10/28 13:34:17;;;;;;;;;;;;;;;;;;5050475;28;19968;-61
2023/10/28 13:36:44;;;;;;;;;;;;;;;;;;5050359;28;20416;-60
2023/10/28 13:39:10;;;;;;;;;;;;;;;;;;5052356;28;19913;-62
2023/10/28 13:41:36;;;;;;;;;;;;;;;;;;5052530;28;19912;-60
2023/10/28 13:44:02;;;;;;;;;;;;;;;;;;5045574;28;19952;-60
2023/10/28 13:46:28;;;;;;;;;;;;;;;;;;5052422;28;20320;-62
2023/10/28 13:48:54;;;;;;;;;;;;;;;;;;5054490;28;20360;-61
2023/10/28 13:51:20;;;;;;;;;;;;;;;;;;5052236;28;19948;-61
2023/10/28 13:53:46;;;;;;;;;;;;;;;;;;5045176;28;19920;-62
2023/10/28 13:56:12;;;;;;;;;;;;;;;;;;5051994;28;19924;-61
2023/10/28 13:58:38;;;;;;;;;;;;;;;;;;5046126;28;19921;-61
2023/10/28 14:01:03;;;;;;;;;;;;;;;;;;5030875;28;19957;-63
2023/10/28 14:03:29;;;;;;;;;;;;;;;;;;5043238;28;19921;-63
2023/10/28 14:05:55;;;;;;;;;;;;;;;;;;5049175;28;19966;-62
2023/10/28 14:08:21;;;;;;;;;;;;;;;;;;5045185;28;19916;-61
2023/10/28 14:10:47;;;;;;;;;;;;;;;;;;5047970;28;19966;-62
2023/10/28 14:13:13;;;;;;;;;;;;;;;;;;5050513;28;20328;-61
2023/10/28 14:15:42;;;;;;;;;;;;;;;;;;5053445;28;20009;-61
2023/10/28 14:18:08;;;;;;;;;;;;;;;;;;5051670;28;19923;-61
2023/10/28 14:20:35;;;;;;;;;;;;;;;;;;5041524;28;19956;-61
2023/10/28 14:23:01;;;;;;;;;;;;;;;;;;5053710;28;19917;-63
2023/10/28 14:25:27;;;;;;;;;;;;;;;;;;5053219;28;19925;-64
2023/10/28 14:27:53;;;;;;;;;;;;;;;;;;5043499;28;20004;-64
2023/10/28 14:30:19;;;;;;;;;;;;;;;;;;5050214;28;19981;-64
2023/10/28 14:32:45;;;;;;;;;;;;;;;;;;5044350;28;20373;-61
2023/10/28 14:35:11;;;;;;;;;;;;;;;;;;5049224;28;19924;-62
2023/10/28 14:37:37;;;;;;;;;;;;;;;;;;5053222;28;19912;-61
2023/10/28 14:40:03;;;;;;;;;;;;;;;;;;5050223;28;20500;-61
2023/10/28 14:42:29;;;;;;;;;;;;;;;;;;5049019;28;19913;-61
2023/10/28 14:44:55;;;;;;;;;;;;;;;;;;5047109;28;19916;-61
2023/10/28 14:47:21;;;;;;;;;;;;;;;;;;5048837;28;20003;-61
2023/10/28 14:49:47;;;;;;;;;;;;;;;;;;5034285;28;19999;-61
2023/10/28 14:52:13;;;;;;;;;;;;;;;;;;5051784;28;19923;-61
2023/10/28 14:54:39;;;;;;;;;;;;;;;;;;5052779;28;19960;-62
2023/10/28 14:57:05;;;;;;;;;;;;;;;;;;5051110;28;20389;-61
2023/10/28 14:59:31;;;;;;;;;;;;;;;;;;5042835;28;19928;-61
2023/10/28 15:01:57;;;;;;;;;;;;;;;;;;5049088;28;20007;-62
2023/10/28 15:04:23;;;;;;;;;;;;;;;;;;5050828;28;20004;-61
2023/10/28 15:06:49;;;;;;;;;;;;;;;;;;5053507;28;19924;-62
2023/10/28 15:09:14;;;;;;;;;;;;;;;;;;5052394;28;19913;-61
2023/10/28 15:11:42;;;;;;;;;;;;;;;;;;5052435;28;19919;-61
2023/10/28 15:14:08;;;;;;;;;;;;;;;;;;5052379;28;20368;-61
2023/10/28 15:16:34;;;;;;;;;;;;;;;;;;5047070;28;20005;-61
2023/10/28 15:19:00;;;;;;;;;;;;;;;;;;5047900;28;20008;-62
2023/10/28 15:21:27;;;;;;;;;;;;;;;;;;5042901;28;19921;-61
2023/10/28 15:23:55;;;;;;;;;;;;;;;;;;5042878;28;19924;-61
2023/10/28 15:26:21;;;;;;;;;;;;;;;;;;5048957;28;19924;-61
2023/10/28 15:28:47;;;;;;;;;;;;;;;;;;5037836;28;20305;-61
2023/10/28 15:31:13;;;;;;;;;;;;;;;;;;5040854;28;19913;-65
2023/10/28 15:33:39;;;;;;;;;;;;;;;;;;5035670;28;19932;-66
2023/10/28 15:36:05;;;;;;;;;;;;;;;;;;5041432;28;19964;-65
2023/10/28 15:38:31;;;;;;;;;;;;;;;;;;5039403;28;19917;-65
2023/10/28 15:40:57;;;;;;;;;;;;;;;;;;5043535;28;19968;-66
2023/10/28 15:43:23;;;;;;;;;;;;;;;;;;5038091;28;20015;-62
2023/10/28 15:45:49;;;;;;;;;;;;;;;;;;5041425;28;20420;-61
2023/10/28 15:48:15;;;;;;;;;;;;;;;;;;5047218;28;19931;-61
2023/10/28 15:50:41;;;;;;;;;;;;;;;;;;5049594;28;19913;-61
2023/10/28 15:53:07;;;;;;;;;;;;;;;;;;5037741;28;20266;-61
2023/10/28 15:55:33;;;;;;;;;;;;;;;;;;5045126;28;20001;-61
2023/10/28 15:57:59;;;;;;;;;;;;;;;;;;5032739;28;19952;-61
2023/10/28 16:00:25;;;;;;;;;;;;;;;;;;5048167;28;20361;-61
2023/10/28 16:02:51;;;;;;;;;;;;;;;;;;5044550;28;19999;-61
2023/10/28 16:05:17;;;;;;;;;;;;;;;;;;5045396;28;19913;-61
2023/10/28 16:07:43;;;;;;;;;;;;;;;;;;5048513;28;20421;-61
2023/10/28 16:10:09;;;;;;;;;;;;;;;;;;5046444;28;19990;-61
2023/10/28 16:12:35;;;;;;;;;;;;;;;;;;5046888;28;19928;-61
2023/10/28 16:15:01;;;;;;;;;;;;;;;;;;5039068;28;19924;-62
2023/10/28 16:17:27;;;;;;;;;;;;;;;;;;5042530;28;19957;-61
2023/10/28 16:19:53;;;;;;;;;;;;;;;;;;5042943;28;19971;-61
2023/10/28 16:22:19;;;;;;;;;;;;;;;;;;5048191;28;20258;-61
2023/10/28 16:24:46;;;;;;;;;;;;;;;;;;5044364;28;19927;-61
2023/10/28 16:27:12;;;;;;;;;;;;;;;;;;5038707;28;19979;-61
2023/10/28 16:29:38;;;;;;;;;;;;;;;;;;5040391;28;19960;-62
2023/10/28 16:32:04;;;;;;;;;;;;;;;;;;5037480;28;20440;-61
2023/10/28 16:34:30;;;;;;;;;;;;;;;;;;5033795;28;20443;-62
2023/10/28 16:36:56;;;;;;;;;;;;;;;;;;5040129;28;19971;-61
2023/10/28 16:39:22;;;;;;;;;;;;;;;;;;5037752;28;19973;-61